createdAt,value
2022-10-02T00:01:53.532Z,59.56
2022-10-02T00:04:22.674Z,59.39
2022-10-02T00:06:50.845Z,59.47
2022-10-02T00:09:24.506Z,59.30
2022-10-02T00:11:54.627Z,59.57
2022-10-02T00:14:23.383Z,59.42
2022-10-02T00:16:51.515Z,59.74
2022-10-02T00:19:19.639Z,59.42
2022-10-02T00:22:07.768Z,59.29
2022-10-02T00:24:38.325Z,59.53
2022-10-02T00:27:15.194Z,59.42
2022-10-02T00:29:48.547Z,59.46
2022-10-02T00:32:21.466Z,59.13
2022-10-02T00:35:08.144Z,59.10
2022-10-02T00:37:38.294Z,59.19
2022-10-02T00:40:09.734Z,59.65
2022-10-02T00:42:49.767Z,59.34
2022-10-02T00:45:34.718Z,59.18
2022-10-02T00:48:05.114Z,59.33
2022-10-02T00:50:36.458Z,59.38
2022-10-02T00:53:15.993Z,59.25
2022-10-02T00:55:49.196Z,59.42
2022-10-02T00:58:52.368Z,59.35
2022-10-02T01:01:23.497Z,59.34
2022-10-02T01:03:53.157Z,59.28
2022-10-02T01:06:20.624Z,59.29
2022-10-02T01:08:48.072Z,59.38
2022-10-02T01:11:15.500Z,59.45
2022-10-02T01:13:42.900Z,59.18
2022-10-02T01:16:10.533Z,59.20
2022-10-02T01:18:39.335Z,59.27
2022-10-02T01:21:11.192Z,59.25
2022-10-02T01:23:40.854Z,59.26
2022-10-02T01:26:09.612Z,59.25
2022-10-02T01:28:37.025Z,59.16
2022-10-02T01:31:07.392Z,59.10
2022-10-02T01:33:34.984Z,59.40
2022-10-02T01:36:02.485Z,59.27
2022-10-02T01:38:30.222Z,59.33
2022-10-02T01:40:57.731Z,59.28
2022-10-02T01:43:27.644Z,59.15
2022-10-02T01:45:59.379Z,59.24
2022-10-02T01:48:34.624Z,59.47
2022-10-02T01:51:09.913Z,59.34
2022-10-02T01:53:39.853Z,59.38
2022-10-02T01:56:11.689Z,59.42
2022-10-02T01:58:45.649Z,59.37
2022-10-02T02:01:18.220Z,59.51
2022-10-02T02:03:49.239Z,59.54
2022-10-02T02:06:20.304Z,59.44
2022-10-02T02:08:49.452Z,59.40
2022-10-02T02:11:17.629Z,59.54
2022-10-02T02:13:48.699Z,59.77
2022-10-02T02:16:21.177Z,59.83
2022-10-02T02:18:50.875Z,59.71
2022-10-02T02:21:22.100Z,59.47
2022-10-02T02:23:49.692Z,59.49
2022-10-02T02:26:18.676Z,59.66
2022-10-02T02:28:49.099Z,59.54
2022-10-02T02:31:17.574Z,59.74
2022-10-02T02:33:46.922Z,59.57
2022-10-02T02:36:16.669Z,59.67
2022-10-02T02:38:46.791Z,59.43
2022-10-02T02:41:14.671Z,59.58
2022-10-02T02:43:44.275Z,59.88
2022-10-02T02:46:16.235Z,59.91
2022-10-02T02:48:44.658Z,59.53
2022-10-02T02:51:14.263Z,59.78
2022-10-02T02:53:42.623Z,59.89
2022-10-02T02:56:11.284Z,59.82
2022-10-02T02:58:40.786Z,59.97
2022-10-02T03:01:08.232Z,60.05
2022-10-02T03:03:37.014Z,60.07
2022-10-02T03:06:07.739Z,60.07
2022-10-02T03:08:36.322Z,60.29
2022-10-02T03:11:07.215Z,60.18
2022-10-02T03:13:43.319Z,59.90
2022-10-02T03:16:19.199Z,60.22
2022-10-02T03:18:57.519Z,60.23
2022-10-02T03:21:27.468Z,59.93
2022-10-02T03:23:59.459Z,60.20
2022-10-02T03:26:30.504Z,60.05
2022-10-02T03:28:58.419Z,60.18
2022-10-02T03:31:26.409Z,60.18
2022-10-02T03:33:55.165Z,60.08
2022-10-02T03:36:24.481Z,60.14
2022-10-02T03:39:12.584Z,60.33
2022-10-02T03:41:40.059Z,60.32
2022-10-02T03:44:07.563Z,60.21
2022-10-02T03:46:35.258Z,60.41
2022-10-02T03:49:04.245Z,60.25
2022-10-02T03:51:31.653Z,60.51
2022-10-02T03:53:59.086Z,60.27
2022-10-02T03:56:31.362Z,60.32
2022-10-02T03:59:00.013Z,60.13
2022-10-02T04:01:29.332Z,60.21
2022-10-02T04:03:58.390Z,60.13
2022-10-02T04:06:29.113Z,60.43
2022-10-02T04:08:59.089Z,60.69
2022-10-02T04:11:28.500Z,60.40
2022-10-02T04:13:58.408Z,60.23
2022-10-02T04:16:28.705Z,60.32
2022-10-02T04:18:56.990Z,60.31
2022-10-02T04:21:34.236Z,60.50
2022-10-02T04:24:05.429Z,60.29
2022-10-02T04:26:34.934Z,60.35
2022-10-02T04:29:06.469Z,60.44
2022-10-02T04:31:33.934Z,60.21
2022-10-02T04:34:02.801Z,60.46
2022-10-02T04:36:39.949Z,60.33
2022-10-02T04:39:18.989Z,60.34
2022-10-02T04:41:55.245Z,60.38
2022-10-02T04:44:30.727Z,60.33
2022-10-02T04:47:08.921Z,60.30
2022-10-02T04:49:55.780Z,60.51
2022-10-02T04:52:32.739Z,60.69
2022-10-02T04:55:32.693Z,60.62
2022-10-02T04:58:09.415Z,60.41
2022-10-02T05:00:38.016Z,60.63
2022-10-02T05:03:17.645Z,60.63
2022-10-02T05:06:07.368Z,60.70
2022-10-02T05:08:54.953Z,60.72
2022-10-02T05:11:34.460Z,60.60
2022-10-02T05:14:10.565Z,60.74
2022-10-02T05:16:47.575Z,60.54
2022-10-02T05:19:34.336Z,60.63
2022-10-02T05:22:11.879Z,60.67
2022-10-02T05:24:50.228Z,60.70
2022-10-02T05:27:26.272Z,60.72
2022-10-02T05:30:06.417Z,60.64
2022-10-02T05:32:51.697Z,60.65
2022-10-02T05:35:25.665Z,60.69
2022-10-02T05:37:58.370Z,60.78
2022-10-02T05:40:29.895Z,60.62
2022-10-02T05:43:01.379Z,60.80
2022-10-02T05:45:30.572Z,60.53
2022-10-02T05:48:04.041Z,60.37
2022-10-02T05:50:32.506Z,60.59
2022-10-02T05:53:01.530Z,60.73
2022-10-02T05:55:33.207Z,60.64
2022-10-02T05:58:04.280Z,60.61
2022-10-02T06:00:33.858Z,60.76
2022-10-02T06:03:08.106Z,60.71
2022-10-02T06:05:42.277Z,60.47
2022-10-02T06:08:10.848Z,60.59
2022-10-02T06:10:42.537Z,60.62
2022-10-02T06:13:11.416Z,60.70
2022-10-02T06:15:40.837Z,60.86
2022-10-02T06:18:08.758Z,60.79
2022-10-02T06:20:38.599Z,60.61
2022-10-02T06:23:08.244Z,60.86
2022-10-02T06:25:38.167Z,60.75
2022-10-02T06:28:10.456Z,60.75
2022-10-02T06:30:39.562Z,60.57
2022-10-02T06:33:10.732Z,60.54
2022-10-02T06:35:46.179Z,60.59
2022-10-02T06:38:20.702Z,60.73
2022-10-02T06:40:50.647Z,60.52
2022-10-02T06:43:28.748Z,60.47
2022-10-02T06:46:00.550Z,60.79
2022-10-02T06:48:37.199Z,60.59
2022-10-02T06:51:07.486Z,60.68
2022-10-02T06:53:43.958Z,60.49
2022-10-02T06:56:19.063Z,60.78
2022-10-02T06:58:55.420Z,60.79
2022-10-02T07:01:28.525Z,60.46
2022-10-02T07:04:05.598Z,60.52
2022-10-02T07:06:39.363Z,60.72
2022-10-02T07:09:42.674Z,60.58
2022-10-02T07:12:18.552Z,60.97
2022-10-02T07:14:55.829Z,60.83
2022-10-02T07:17:33.097Z,60.89
2022-10-02T07:20:13.827Z,60.80
2022-10-02T07:22:49.227Z,60.89
2022-10-02T07:25:32.271Z,60.94
2022-10-02T07:28:04.064Z,61.06
2022-10-02T07:30:35.304Z,61.07
2022-10-02T07:33:03.908Z,60.85
2022-10-02T07:35:41.906Z,61.07
2022-10-02T07:38:20.845Z,60.96
2022-10-02T07:40:51.663Z,60.94
2022-10-02T07:43:26.155Z,60.82
2022-10-02T07:45:57.144Z,61.03
2022-10-02T07:48:29.783Z,61.23
2022-10-02T07:51:28.555Z,60.87
2022-10-02T07:53:57.832Z,61.03
2022-10-02T07:56:25.294Z,60.90
2022-10-02T07:58:53.656Z,61.21
2022-10-02T08:01:23.928Z,61.01
2022-10-02T08:03:52.917Z,61.12
2022-10-02T08:06:20.341Z,61.28
2022-10-02T08:08:51.254Z,61.10
2022-10-02T08:11:21.600Z,61.32
2022-10-02T08:13:50.620Z,61.17
2022-10-02T08:16:18.162Z,61.12
2022-10-02T08:18:48.657Z,61.34
2022-10-02T08:21:17.736Z,61.39
2022-10-02T08:23:48.277Z,61.18
2022-10-02T08:26:17.612Z,61.21
2022-10-02T08:28:46.264Z,61.04
2022-10-02T08:31:14.321Z,61.28
2022-10-02T08:33:41.889Z,61.11
2022-10-02T08:36:36.821Z,61.35
2022-10-02T08:39:12.430Z,61.09
2022-10-02T08:42:10.688Z,61.14
2022-10-02T08:44:57.467Z,61.45
2022-10-02T08:47:44.153Z,61.12
2022-10-02T08:50:41.025Z,61.08
2022-10-02T08:53:44.368Z,60.95
2022-10-02T08:56:22.912Z,61.00
2022-10-02T08:59:25.887Z,60.75
2022-10-02T09:02:19.664Z,60.85
2022-10-02T09:05:13.548Z,60.79
2022-10-02T09:08:08.231Z,60.69
2022-10-02T09:11:07.057Z,60.46
2022-10-02T09:14:13.056Z,60.54
2022-10-02T09:16:45.355Z,60.69
2022-10-02T09:19:20.641Z,60.56
2022-10-02T09:21:52.051Z,60.84
2022-10-02T09:24:59.148Z,60.69
2022-10-02T09:27:52.775Z,60.60
2022-10-02T09:30:22.036Z,60.89
2022-10-02T09:33:27.129Z,60.64
2022-10-02T09:36:28.964Z,60.50
2022-10-02T09:39:09.614Z,60.75
2022-10-02T09:42:24.473Z,60.66
2022-10-02T09:45:21.112Z,60.63
2022-10-02T09:48:18.607Z,60.72
2022-10-02T09:50:56.865Z,60.72
2022-10-02T09:53:45.583Z,60.65
2022-10-02T09:56:40.768Z,60.87
2022-10-02T09:59:20.264Z,60.89
2022-10-02T10:02:02.520Z,60.73
2022-10-02T10:05:06.645Z,60.80
2022-10-02T10:07:54.745Z,60.59
2022-10-02T10:10:37.988Z,60.46
2022-10-02T10:13:32.139Z,60.53
2022-10-02T10:16:22.758Z,60.50
2022-10-02T10:19:07.474Z,60.66
2022-10-02T10:22:02.228Z,60.59
2022-10-02T10:24:46.785Z,60.57
2022-10-02T10:27:22.201Z,60.61
2022-10-02T10:29:59.888Z,60.75
2022-10-02T10:33:09.808Z,60.60
2022-10-02T10:36:33.547Z,60.81
2022-10-02T10:39:06.879Z,60.69
2022-10-02T10:42:12.772Z,60.67
2022-10-02T10:45:12.860Z,60.62
2022-10-02T10:47:46.757Z,60.84
2022-10-02T10:50:38.609Z,60.84
2022-10-02T10:53:26.356Z,60.52
2022-10-02T10:56:07.118Z,60.79
2022-10-02T10:58:41.802Z,60.67
2022-10-02T11:01:14.052Z,60.66
2022-10-02T11:04:08.303Z,60.39
2022-10-02T11:06:52.824Z,60.72
2022-10-02T11:09:42.737Z,60.71
2022-10-02T11:12:32.952Z,60.79
2022-10-02T11:15:04.550Z,60.83
2022-10-02T11:17:44.649Z,61.05
2022-10-02T11:20:20.071Z,60.91
2022-10-02T11:23:23.053Z,61.11
2022-10-02T11:26:32.260Z,61.16
2022-10-02T11:29:12.445Z,61.11
2022-10-02T11:31:50.532Z,61.19
2022-10-02T11:34:48.259Z,61.21
2022-10-02T11:37:24.173Z,61.06
2022-10-02T11:40:16.415Z,61.14
2022-10-02T11:43:02.794Z,61.04
2022-10-02T11:45:52.969Z,61.13
2022-10-02T11:48:40.704Z,61.20
2022-10-02T11:51:23.569Z,61.14
2022-10-02T11:54:18.600Z,60.97
2022-10-02T11:57:01.671Z,61.03
2022-10-02T11:59:50.449Z,61.05
2022-10-02T12:02:21.691Z,61.25
2022-10-02T12:04:54.869Z,60.94
2022-10-02T12:07:28.566Z,60.84
2022-10-02T12:10:04.332Z,61.17
2022-10-02T12:12:41.861Z,61.07
2022-10-02T12:15:15.423Z,60.93
2022-10-02T12:18:06.944Z,61.12
2022-10-02T12:21:02.881Z,61.09
2022-10-02T12:23:52.099Z,60.95
2022-10-02T12:26:49.066Z,60.86
2022-10-02T12:29:19.264Z,60.80
2022-10-02T12:31:51.358Z,61.06
2022-10-02T12:34:31.392Z,60.87
2022-10-02T12:37:00.802Z,60.88
2022-10-02T12:39:36.033Z,60.73
2022-10-02T12:42:11.516Z,60.61
2022-10-02T12:44:47.488Z,60.56
2022-10-02T12:47:24.363Z,60.61
2022-10-02T12:49:56.489Z,60.55
2022-10-02T12:53:09.624Z,60.70
2022-10-02T12:55:51.877Z,60.62
2022-10-02T12:58:23.594Z,60.51
2022-10-02T13:01:09.600Z,60.46
2022-10-02T13:04:00.828Z,60.69
2022-10-02T13:07:16.766Z,60.38
2022-10-02T13:09:50.494Z,60.57
2022-10-02T13:12:25.585Z,60.35
2022-10-02T13:15:17.086Z,60.51
2022-10-02T13:17:47.334Z,60.22
2022-10-02T13:20:22.367Z,60.29
2022-10-02T13:22:54.379Z,60.45
2022-10-02T13:25:34.856Z,60.44
2022-10-02T13:28:13.401Z,60.33
2022-10-02T13:30:42.512Z,60.38
2022-10-02T13:33:17.512Z,60.18
2022-10-02T13:36:11.095Z,60.18
2022-10-02T13:39:23.088Z,60.13
2022-10-02T13:41:58.139Z,59.90
2022-10-02T13:44:28.593Z,59.82
2022-10-02T13:47:14.669Z,60.00
2022-10-02T13:49:54.561Z,59.66
2022-10-02T13:52:28.205Z,59.94
2022-10-02T13:55:18.236Z,59.81
2022-10-02T13:57:54.066Z,59.86
2022-10-02T14:00:23.933Z,59.82
2022-10-02T14:03:03.443Z,60.08
2022-10-02T14:05:35.788Z,60.08
2022-10-02T14:08:27.983Z,59.97
2022-10-02T14:11:01.740Z,60.02
2022-10-02T14:13:46.395Z,60.31
2022-10-02T14:16:32.618Z,60.06
2022-10-02T14:19:30.427Z,60.63
2022-10-02T14:22:06.146Z,60.44
2022-10-02T14:24:59.545Z,60.41
2022-10-02T14:27:52.192Z,60.20
2022-10-02T14:30:20.054Z,60.59
2022-10-02T14:32:55.428Z,60.58
2022-10-02T14:35:34.324Z,60.51
2022-10-02T14:38:14.726Z,60.45
2022-10-02T14:40:55.598Z,60.47
2022-10-02T14:43:35.664Z,60.49
2022-10-02T14:46:08.769Z,60.73
2022-10-02T14:48:50.422Z,60.52
2022-10-02T14:51:35.321Z,60.27
2022-10-02T14:54:19.944Z,60.55
2022-10-02T14:56:59.532Z,60.10
2022-10-02T14:59:58.392Z,60.00
2022-10-02T15:02:34.368Z,59.93
2022-10-02T15:05:06.911Z,59.88
2022-10-02T15:07:34.887Z,59.66
2022-10-02T15:10:07.019Z,59.78
2022-10-02T15:12:47.484Z,59.44
2022-10-02T15:15:17.229Z,59.66
2022-10-02T15:17:57.218Z,59.57
2022-10-02T15:20:31.886Z,59.34
2022-10-02T15:23:00.232Z,59.31
2022-10-02T15:25:51.317Z,59.15
2022-10-02T15:28:36.422Z,58.82
2022-10-02T15:31:09.087Z,58.97
2022-10-02T15:33:37.240Z,58.83
2022-10-02T15:36:35.469Z,58.98
2022-10-02T15:39:16.105Z,59.15
2022-10-02T15:41:46.767Z,59.05
2022-10-02T15:44:29.493Z,59.14
2022-10-02T15:46:58.539Z,59.07
2022-10-02T15:49:36.644Z,59.36
2022-10-02T15:52:09.101Z,59.37
2022-10-02T15:54:40.320Z,59.36
2022-10-02T15:57:28.616Z,59.51
2022-10-02T16:00:11.880Z,59.53
2022-10-02T16:02:51.209Z,59.60
2022-10-02T16:05:24.605Z,59.74
2022-10-02T16:10:18.241Z,59.99
2022-10-02T16:12:56.876Z,60.17
2022-10-02T16:15:28.611Z,60.27
2022-10-02T16:18:04.873Z,60.34
2022-10-02T16:20:38.520Z,60.07
2022-10-02T16:23:25.742Z,60.35
2022-10-02T16:25:59.243Z,60.26
2022-10-02T16:28:39.316Z,60.08
2022-10-02T16:31:18.228Z,60.50
2022-10-02T16:33:52.537Z,60.50
2022-10-02T16:36:30.081Z,60.41
2022-10-02T16:39:05.119Z,60.28
2022-10-02T16:41:48.985Z,60.62
2022-10-02T16:44:27.727Z,60.32
2022-10-02T16:46:59.612Z,60.63
2022-10-02T16:49:32.465Z,60.49
2022-10-02T16:52:04.596Z,60.80
2022-10-02T16:54:38.178Z,60.83
2022-10-02T16:57:07.359Z,60.80
2022-10-02T16:59:43.004Z,60.65
2022-10-02T17:02:18.904Z,60.50
2022-10-02T17:04:59.317Z,60.96
2022-10-02T17:07:31.120Z,60.72
2022-10-02T17:10:02.205Z,60.65
2022-10-02T17:12:32.397Z,60.92
2022-10-02T17:15:00.936Z,60.74
2022-10-02T17:17:32.922Z,60.62
2022-10-02T17:20:06.055Z,60.95
2022-10-02T17:22:35.537Z,60.95
2022-10-02T17:25:07.164Z,60.62
2022-10-02T17:27:42.688Z,60.99
2022-10-02T17:30:16.698Z,60.72
2022-10-02T17:32:56.586Z,61.07
2022-10-02T17:35:37.858Z,61.05
2022-10-02T17:38:12.435Z,61.02
2022-10-02T17:40:40.812Z,60.92
2022-10-02T17:43:11.926Z,60.72
2022-10-02T17:45:42.921Z,60.88
2022-10-02T17:48:24.060Z,61.04
2022-10-02T17:50:59.535Z,60.89
2022-10-02T17:54:01.398Z,60.79
2022-10-02T17:56:39.906Z,61.17
2022-10-02T17:59:36.315Z,61.01
2022-10-02T18:02:08.764Z,60.80
2022-10-02T18:04:41.401Z,61.03
2022-10-02T18:07:17.411Z,60.96
2022-10-02T18:09:50.552Z,61.08
2022-10-02T18:12:33.870Z,60.84
2022-10-02T18:15:24.485Z,60.89
2022-10-02T18:18:02.339Z,60.97
2022-10-02T18:20:34.115Z,60.66
2022-10-02T18:23:20.208Z,60.87
2022-10-02T18:25:57.604Z,60.99
2022-10-02T18:28:37.582Z,61.08
2022-10-02T18:31:13.471Z,60.96
2022-10-02T18:33:56.695Z,60.88
2022-10-02T18:36:37.094Z,60.82
2022-10-02T18:39:12.719Z,60.97
2022-10-02T18:41:48.014Z,60.84
2022-10-02T18:44:22.159Z,60.86
2022-10-02T18:46:51.764Z,61.10
2022-10-02T18:49:40.800Z,60.78
2022-10-02T18:52:28.870Z,60.79
2022-10-02T18:55:13.212Z,61.15
2022-10-02T18:57:46.803Z,60.91
2022-10-02T19:00:17.057Z,60.80
2022-10-02T19:02:52.043Z,61.00
2022-10-02T19:05:26.690Z,60.67
2022-10-02T19:08:00.324Z,60.93
2022-10-02T19:10:29.627Z,60.81
2022-10-02T19:12:58.296Z,60.92
2022-10-02T19:15:27.982Z,60.60
2022-10-02T19:17:59.850Z,60.81
2022-10-02T19:20:43.516Z,60.93
2022-10-02T19:23:20.824Z,60.71
2022-10-02T19:25:48.315Z,60.88
2022-10-02T19:28:16.951Z,60.75
2022-10-02T19:30:47.511Z,60.94
2022-10-02T19:33:19.967Z,60.63
2022-10-02T19:35:47.397Z,60.88
2022-10-02T19:38:21.862Z,60.92
2022-10-02T19:40:52.399Z,60.85
2022-10-02T19:43:22.951Z,60.58
2022-10-02T19:45:51.255Z,60.61
2022-10-02T19:48:18.929Z,60.69
2022-10-02T19:50:47.016Z,60.64
2022-10-02T19:53:21.171Z,60.83
2022-10-02T19:55:50.082Z,60.55
2022-10-02T19:58:19.270Z,60.69
2022-10-02T20:00:47.038Z,60.44
2022-10-02T20:03:16.119Z,60.33
2022-10-02T20:05:43.566Z,60.68
2022-10-02T20:08:14.264Z,60.44
2022-10-02T20:10:44.779Z,60.45
2022-10-02T20:13:15.181Z,60.28
2022-10-02T20:16:01.446Z,60.40
2022-10-02T20:18:28.875Z,60.25
2022-10-02T20:21:01.016Z,60.42
2022-10-02T20:23:29.775Z,60.19
2022-10-02T20:25:59.299Z,60.10
2022-10-02T20:28:28.684Z,60.19
2022-10-02T20:30:57.636Z,60.33
2022-10-02T20:33:26.852Z,60.12
2022-10-02T20:35:56.557Z,60.27
2022-10-02T20:38:27.181Z,60.20
2022-10-02T20:40:54.881Z,60.43
2022-10-02T20:43:24.436Z,60.10
2022-10-02T20:45:58.605Z,60.40
2022-10-02T20:49:13.498Z,60.31
2022-10-02T20:52:07.201Z,60.14
2022-10-02T20:54:43.600Z,60.16
2022-10-02T20:57:56.255Z,60.28
2022-10-02T21:00:27.076Z,60.13
2022-10-02T21:03:27.314Z,60.19
2022-10-02T21:06:09.467Z,60.34
2022-10-02T21:08:47.659Z,60.17
2022-10-02T21:11:19.954Z,60.16
2022-10-02T21:14:09.167Z,60.08
2022-10-02T21:16:54.208Z,60.20
2022-10-02T21:19:45.430Z,60.09
2022-10-02T21:22:45.301Z,60.13
2022-10-02T21:25:39.040Z,60.33
2022-10-02T21:28:27.294Z,60.29
2022-10-02T21:30:58.977Z,60.02
2022-10-02T21:33:29.493Z,60.00
2022-10-02T21:35:57.201Z,60.08
2022-10-02T21:39:24.252Z,60.15
2022-10-02T21:42:08.524Z,60.24
2022-10-02T21:45:09.815Z,59.99
2022-10-02T21:47:43.571Z,60.09
2022-10-02T21:51:12.013Z,60.25
2022-10-02T21:54:18.795Z,59.87
2022-10-02T21:57:17.419Z,60.47
2022-10-02T22:00:07.129Z,60.08
2022-10-02T22:02:44.476Z,60.20
2022-10-02T22:05:46.897Z,60.17
2022-10-02T22:08:18.116Z,59.90
2022-10-02T22:10:50.562Z,59.97
2022-10-02T22:13:25.176Z,59.91
2022-10-02T22:16:00.602Z,60.11
2022-10-02T22:18:30.736Z,60.20
2022-10-02T22:21:01.620Z,59.92
2022-10-02T22:23:55.922Z,59.91
2022-10-02T22:26:31.314Z,60.21
2022-10-02T22:29:01.091Z,60.10
2022-10-02T22:31:46.248Z,59.96
2022-10-02T22:34:22.755Z,59.92
2022-10-02T22:37:03.115Z,60.23
2022-10-02T22:39:32.051Z,60.02
2022-10-02T22:42:01.553Z,60.11
2022-10-02T22:44:34.338Z,59.97
2022-10-02T22:47:02.966Z,59.83
2022-10-02T22:49:33.098Z,59.96
2022-10-02T22:52:01.595Z,60.12
2022-10-02T22:54:32.744Z,60.09
2022-10-02T22:57:08.114Z,60.00
2022-10-02T22:59:40.046Z,59.74
2022-10-02T23:02:10.326Z,59.63
2022-10-02T23:04:40.040Z,59.95
2022-10-02T23:07:11.896Z,59.85
2022-10-02T23:09:42.587Z,60.09
2022-10-02T23:12:12.597Z,60.05
2022-10-02T23:14:51.976Z,60.08
2022-10-02T23:17:22.227Z,60.39
2022-10-02T23:19:50.891Z,60.31
2022-10-02T23:22:23.643Z,60.07
2022-10-02T23:24:53.946Z,60.23
2022-10-02T23:27:23.069Z,59.95
2022-10-02T23:29:54.535Z,60.11
2022-10-02T23:32:25.015Z,60.33
2022-10-02T23:34:54.869Z,60.11
2022-10-02T23:37:23.939Z,60.24
2022-10-02T23:39:55.060Z,59.86
2022-10-02T23:42:26.476Z,59.80
2022-10-02T23:44:57.990Z,60.14
2022-10-02T23:47:30.168Z,60.12
2022-10-02T23:49:58.452Z,60.18
2022-10-02T23:52:35.225Z,60.27
2022-10-02T23:55:22.334Z,60.09
2022-10-02T23:58:13.491Z,60.04
